Pagrindinis puslapis
METAR-TAF:

METAR-TAF

Oro uostai :

Masjed-Soleyman, Iranas

platuma: 31-59N, ilguma: 049-16E, Aukštis: 372 m

Dabartinis oras

Ataskaita buvo paskelbta 1 valandą ir 59 minutes, ne 02:00 UTC
Ramus vėjas
Temperatūra 32°C
Drėgmė 18%
Slėgis 1000 hPa
Matomumas 10 km arba daugiau
nėra debesų žemiau 1500 m ir nėra kamuolinių lietaus debesų

METAR: OIAI 160200Z 00000KT CAVOK 32/05 Q1000

Laikas: 08:29 (03:59 UTC)


TAF: trūkstamas

Orai ataskaitas ir orų prognozės (METAR, TAF).

turimą stotys yra geltonos ir raudonos taškus žemėlapyje.

Perkelti pele per norėdami pamatyti stoties vardą.

Tada spustelėkite, norėdami matyti oro stebėjimo ir prognozės.

Norėdami pakeisti žemėlapį: spustelėkite ant žalios mygtukų su juodo kryžiaus žemyn,; žalią mygtuką su brūkšneliu, jei norite nutolinti; arba žalių rodyklių gretimoms žemėlapius.


METAR-TAF: